createdAt,value
2022-10-21T00:02:07.649Z,83.71
2022-10-21T00:04:53.144Z,84.13
2022-10-21T00:07:38.623Z,84.10
2022-10-21T00:10:24.010Z,84.83
2022-10-21T00:13:09.090Z,84.77
2022-10-21T00:16:03.472Z,84.88
2022-10-21T00:18:49.214Z,84.92
2022-10-21T00:21:36.408Z,84.72
2022-10-21T00:24:21.574Z,84.62
2022-10-21T00:27:07.059Z,84.50
2022-10-21T00:29:52.207Z,84.08
2022-10-21T00:32:37.608Z,84.46
2022-10-21T00:35:22.867Z,84.37
2022-10-21T00:38:08.262Z,84.24
2022-10-21T00:40:54.105Z,84.74
2022-10-21T00:43:57.526Z,84.28
2022-10-21T00:46:48.939Z,84.31
2022-10-21T00:50:01.860Z,84.63
2022-10-21T00:52:47.358Z,83.99
2022-10-21T00:55:36.627Z,83.58
2022-10-21T00:58:26.317Z,83.83
2022-10-21T01:01:11.835Z,83.78
2022-10-21T01:03:56.930Z,83.82
2022-10-21T01:06:42.852Z,84.38
2022-10-21T01:09:29.883Z,84.59
2022-10-21T01:12:30.863Z,84.87
2022-10-21T01:15:32.219Z,85.22
2022-10-21T01:18:26.591Z,85.26
2022-10-21T01:21:23.943Z,85.27
2022-10-21T01:24:57.062Z,85.70
2022-10-21T01:28:05.650Z,85.90
2022-10-21T01:31:01.087Z,86.12
2022-10-21T01:33:59.270Z,86.08
2022-10-21T01:36:56.980Z,85.70
2022-10-21T01:39:49.637Z,86.23
2022-10-21T01:42:56.538Z,86.57
2022-10-21T01:45:48.909Z,86.24
2022-10-21T01:48:43.260Z,86.35
2022-10-21T01:51:29.536Z,86.10
2022-10-21T01:54:25.146Z,86.46
2022-10-21T01:57:14.705Z,86.50
2022-10-21T02:00:01.506Z,87.18
2022-10-21T02:02:49.771Z,87.11
2022-10-21T02:05:35.730Z,86.64
2022-10-21T02:08:21.431Z,87.17
2022-10-21T02:11:09.434Z,86.99
2022-10-21T02:14:02.767Z,87.15
2022-10-21T02:16:52.378Z,87.16
2022-10-21T02:19:38.079Z,87.33
2022-10-21T02:22:24.509Z,87.19
2022-10-21T02:25:25.465Z,87.42
2022-10-21T02:28:13.026Z,87.30
2022-10-21T02:31:07.848Z,87.50
2022-10-21T02:34:02.194Z,87.45
2022-10-21T02:37:18.614Z,87.39
2022-10-21T02:40:11.629Z,86.71
2022-10-21T02:43:02.853Z,87.00
2022-10-21T02:45:49.885Z,86.89
2022-10-21T02:48:37.353Z,87.04
2022-10-21T02:51:22.783Z,86.58
2022-10-21T02:54:08.259Z,86.15
2022-10-21T02:56:53.699Z,86.31
2022-10-21T02:59:38.939Z,86.66
2022-10-21T03:02:24.085Z,86.52
2022-10-21T03:05:09.786Z,86.31
2022-10-21T03:07:54.916Z,86.61
2022-10-21T03:10:40.593Z,86.88
2022-10-21T03:13:25.599Z,87.20
2022-10-21T03:16:11.046Z,87.11
2022-10-21T03:18:56.247Z,87.04
2022-10-21T03:21:41.419Z,87.12
2022-10-21T03:24:28.707Z,86.84
2022-10-21T03:27:14.314Z,86.78
2022-10-21T03:29:59.908Z,86.55
2022-10-21T03:32:45.358Z,86.65
2022-10-21T03:35:30.600Z,86.67
2022-10-21T03:38:15.818Z,86.82
2022-10-21T03:41:01.159Z,87.24
2022-10-21T03:43:46.772Z,86.79
2022-10-21T03:46:32.183Z,86.41
2022-10-21T03:49:21.430Z,86.13
2022-10-21T03:52:07.039Z,86.24
2022-10-21T03:54:52.387Z,86.37
2022-10-21T03:57:37.894Z,86.51
2022-10-21T04:00:26.030Z,86.34
2022-10-21T04:03:13.429Z,86.07
2022-10-21T04:05:58.864Z,85.69
2022-10-21T04:08:44.235Z,85.93
2022-10-21T04:11:29.290Z,86.12
2022-10-21T04:14:15.522Z,86.17
2022-10-21T04:17:06.730Z,86.44
2022-10-21T04:19:52.134Z,86.65
2022-10-21T04:22:37.739Z,86.36
2022-10-21T04:25:23.185Z,85.76
2022-10-21T04:28:08.381Z,86.41
2022-10-21T04:30:53.976Z,87.21
2022-10-21T04:33:39.096Z,86.75
2022-10-21T04:36:24.565Z,86.96
2022-10-21T04:39:09.707Z,86.81
2022-10-21T04:41:55.965Z,87.16
2022-10-21T04:44:41.496Z,87.08
2022-10-21T04:47:26.641Z,87.13
2022-10-21T04:50:11.848Z,87.11
2022-10-21T04:52:57.328Z,86.75
2022-10-21T04:55:42.895Z,87.03
2022-10-21T04:58:28.128Z,87.09
2022-10-21T05:01:13.441Z,87.44
2022-10-21T05:03:58.880Z,87.01
2022-10-21T05:06:44.364Z,87.31
2022-10-21T05:09:29.411Z,86.65
2022-10-21T05:12:14.825Z,87.07
2022-10-21T05:15:02.156Z,86.58
2022-10-21T05:17:47.494Z,86.91
2022-10-21T05:20:32.959Z,86.86
2022-10-21T05:23:18.934Z,86.97
2022-10-21T05:26:04.475Z,86.97
2022-10-21T05:28:49.696Z,87.00
2022-10-21T05:31:35.019Z,86.88
2022-10-21T05:34:20.132Z,86.79
2022-10-21T05:37:06.001Z,86.67
2022-10-21T05:39:44.988Z,86.63
2022-10-21T05:42:30.479Z,86.11
2022-10-21T05:45:16.068Z,86.10
2022-10-21T05:48:01.319Z,86.22
2022-10-21T05:50:47.711Z,85.68
2022-10-21T05:53:32.921Z,85.71
2022-10-21T05:56:18.281Z,85.72
2022-10-21T05:59:05.483Z,85.69
2022-10-21T06:01:53.191Z,85.61
2022-10-21T06:04:38.992Z,85.32
2022-10-21T06:07:24.268Z,85.47
2022-10-21T06:10:09.934Z,85.41
2022-10-21T06:12:55.521Z,85.28
2022-10-21T06:15:40.672Z,85.31
2022-10-21T06:18:26.395Z,85.49
2022-10-21T06:21:11.958Z,85.50
2022-10-21T06:23:57.182Z,85.70
2022-10-21T06:26:42.401Z,86.13
2022-10-21T06:29:27.799Z,86.54
2022-10-21T06:32:13.077Z,87.34
2022-10-21T06:34:58.544Z,87.74
2022-10-21T06:37:43.694Z,88.85
2022-10-21T06:40:28.806Z,89.03
2022-10-21T06:43:15.242Z,90.15
2022-10-21T06:46:02.648Z,90.07
2022-10-21T06:48:48.579Z,90.12
2022-10-21T06:51:33.782Z,89.98
2022-10-21T06:54:18.956Z,90.10
2022-10-21T06:57:04.719Z,90.45
2022-10-21T06:59:49.923Z,90.05
2022-10-21T07:02:35.825Z,89.75
2022-10-21T07:05:21.124Z,89.64
2022-10-21T07:08:10.559Z,90.14
2022-10-21T07:10:58.006Z,89.68
2022-10-21T07:13:43.081Z,89.18
2022-10-21T07:16:34.173Z,88.28
2022-10-21T07:19:21.827Z,88.60
2022-10-21T07:22:07.069Z,88.47
2022-10-21T07:24:52.313Z,88.01
2022-10-21T07:27:37.937Z,88.14
2022-10-21T07:30:23.687Z,87.81
2022-10-21T07:33:09.510Z,87.57
2022-10-21T07:36:06.664Z,87.65
2022-10-21T07:38:53.622Z,87.68
2022-10-21T07:41:48.899Z,87.18
2022-10-21T07:44:34.318Z,86.57
2022-10-21T07:47:19.525Z,87.28
2022-10-21T07:50:05.005Z,87.09
2022-10-21T07:52:58.299Z,86.56
2022-10-21T07:56:06.604Z,85.94
2022-10-21T07:58:52.890Z,85.39
2022-10-21T08:01:40.328Z,85.58
2022-10-21T08:04:29.661Z,84.99
2022-10-21T08:07:14.757Z,84.30
2022-10-21T08:10:00.623Z,90.13
2022-10-21T08:13:11.120Z,92.91
2022-10-21T08:15:57.025Z,88.66
2022-10-21T08:18:42.226Z,85.00
2022-10-21T08:21:28.239Z,83.34
2022-10-21T08:24:13.784Z,82.22
2022-10-21T08:26:59.587Z,82.58
2022-10-21T08:29:46.841Z,82.33
2022-10-21T08:32:32.291Z,81.78
2022-10-21T08:35:17.720Z,81.34
2022-10-21T08:38:03.147Z,81.12
2022-10-21T08:40:51.049Z,80.90
2022-10-21T08:43:39.650Z,80.89
2022-10-21T08:46:32.216Z,80.96
2022-10-21T08:49:25.048Z,80.55
2022-10-21T08:52:21.255Z,79.94
2022-10-21T08:55:15.741Z,79.74
2022-10-21T08:58:02.432Z,77.71
2022-10-21T09:01:17.613Z,77.28
2022-10-21T09:04:18.840Z,77.00
2022-10-21T09:07:16.330Z,76.95
2022-10-21T09:10:16.104Z,76.88
2022-10-21T09:13:12.795Z,77.43
2022-10-21T09:16:14.316Z,77.52
2022-10-21T09:19:14.887Z,77.41
2022-10-21T09:22:41.315Z,76.95
2022-10-21T09:25:54.837Z,75.96
2022-10-21T09:28:40.274Z,75.34
2022-10-21T09:31:28.738Z,73.72
2022-10-21T09:34:21.074Z,74.39
2022-10-21T09:37:13.613Z,72.92
2022-10-21T09:43:22.984Z,73.81
2022-10-21T09:46:12.984Z,74.47
2022-10-21T09:52:07.424Z,75.16
2022-10-21T09:54:52.934Z,75.23
2022-10-21T09:57:48.285Z,74.41
2022-10-21T10:00:44.627Z,73.07
2022-10-21T10:03:36.538Z,73.16
2022-10-21T10:06:36.334Z,73.72
2022-10-21T10:09:29.143Z,72.66
2022-10-21T10:12:22.416Z,72.47
2022-10-21T10:15:32.113Z,72.53
2022-10-21T10:18:24.478Z,71.08
2022-10-21T10:21:16.734Z,71.04
2022-10-21T10:24:03.024Z,71.93
2022-10-21T10:26:49.338Z,71.55
2022-10-21T10:29:35.773Z,71.82
2022-10-21T10:32:24.748Z,72.37
2022-10-21T10:35:35.610Z,72.04
2022-10-21T10:38:34.056Z,72.02
2022-10-21T10:41:19.453Z,72.19
2022-10-21T10:44:12.288Z,71.81
2022-10-21T10:47:01.300Z,69.43
2022-10-21T10:49:47.309Z,69.45
2022-10-21T10:52:32.796Z,68.33
2022-10-21T10:55:18.544Z,67.10
2022-10-21T10:58:12.498Z,67.62
2022-10-21T11:01:00.916Z,67.76
2022-10-21T11:03:59.582Z,66.95
2022-10-21T11:06:51.161Z,66.18
2022-10-21T11:09:37.394Z,65.64
2022-10-21T11:12:26.473Z,65.30
2022-10-21T11:15:15.865Z,64.79
2022-10-21T11:18:24.213Z,64.35
2022-10-21T11:21:16.377Z,64.51
2022-10-21T11:24:19.997Z,65.31
2022-10-21T11:27:46.472Z,65.41
2022-10-21T11:31:10.449Z,65.87
2022-10-21T11:34:18.740Z,66.61
2022-10-21T11:37:37.468Z,66.29
2022-10-21T11:40:32.641Z,66.65
2022-10-21T11:43:20.785Z,66.62
2022-10-21T11:46:45.064Z,66.37
2022-10-21T11:49:55.856Z,66.00
2022-10-21T11:52:49.409Z,65.94
2022-10-21T11:55:38.732Z,66.15
2022-10-21T11:58:41.440Z,66.59
2022-10-21T12:01:40.877Z,66.72
2022-10-21T12:04:37.118Z,66.55
2022-10-21T12:07:42.636Z,66.64
2022-10-21T12:10:34.415Z,66.69
2022-10-21T12:13:31.000Z,67.19
2022-10-21T12:16:25.827Z,67.64
2022-10-21T12:19:13.270Z,67.40
2022-10-21T12:21:58.549Z,67.83
2022-10-21T12:24:56.827Z,67.51
2022-10-21T12:27:47.276Z,67.98
2022-10-21T12:30:53.781Z,68.49
2022-10-21T12:33:43.191Z,68.94
2022-10-21T12:36:40.722Z,69.71
2022-10-21T12:39:32.464Z,70.36
2022-10-21T12:42:22.596Z,70.64
2022-10-21T12:45:26.708Z,70.92
2022-10-21T12:48:33.154Z,71.06
2022-10-21T12:51:36.661Z,71.46
2022-10-21T12:54:29.549Z,71.15
2022-10-21T12:57:39.973Z,71.59
2022-10-21T13:00:29.172Z,72.09
2022-10-21T13:03:19.990Z,69.96
2022-10-21T13:06:06.189Z,68.77
2022-10-21T13:08:52.464Z,68.70
2022-10-21T13:11:39.903Z,67.91
2022-10-21T13:14:35.169Z,67.60
2022-10-21T13:17:21.575Z,67.50
2022-10-21T13:20:07.015Z,67.47
2022-10-21T13:23:03.434Z,68.18
2022-10-21T13:26:06.475Z,67.47
2022-10-21T13:29:19.540Z,67.59
2022-10-21T13:32:22.382Z,68.41
2022-10-21T13:35:36.870Z,68.90
2022-10-21T13:38:33.634Z,69.20
2022-10-21T13:41:27.808Z,68.91
2022-10-21T13:44:37.543Z,69.49
2022-10-21T13:47:33.842Z,69.28
2022-10-21T13:50:26.041Z,68.95
2022-10-21T13:53:17.387Z,68.94
2022-10-21T13:56:06.034Z,69.47
2022-10-21T13:58:52.516Z,69.31
2022-10-21T14:01:49.554Z,69.39
2022-10-21T14:04:40.559Z,69.30
2022-10-21T14:07:26.871Z,70.00
2022-10-21T14:10:15.688Z,70.40
2022-10-21T14:13:01.548Z,70.29
2022-10-21T14:15:49.271Z,70.57
2022-10-21T14:18:44.765Z,70.90
2022-10-21T14:21:37.961Z,71.27
2022-10-21T14:27:36.295Z,71.64
2022-10-21T14:30:27.413Z,71.72
2022-10-21T14:33:17.953Z,72.03
2022-10-21T14:36:20.474Z,72.32
2022-10-21T14:39:23.628Z,72.35
2022-10-21T14:42:34.884Z,72.39
2022-10-21T14:45:35.017Z,72.52
2022-10-21T14:48:30.629Z,73.09
2022-10-21T14:51:22.453Z,73.46
2022-10-21T14:54:36.388Z,73.65
2022-10-21T14:57:36.770Z,73.68
2022-10-21T15:00:30.171Z,73.66
2022-10-21T15:03:16.273Z,74.04
2022-10-21T15:06:13.546Z,74.00
2022-10-21T15:09:05.050Z,74.49
2022-10-21T15:11:50.476Z,74.50
2022-10-21T15:14:35.954Z,74.89
2022-10-21T15:17:22.701Z,75.18
2022-10-21T15:20:16.005Z,75.25
2022-10-21T15:23:01.597Z,75.25
2022-10-21T15:25:46.989Z,75.41
2022-10-21T15:28:33.924Z,75.51
2022-10-21T15:31:25.068Z,76.28
2022-10-21T15:34:15.018Z,76.14
2022-10-21T15:37:00.216Z,76.52
2022-10-21T15:39:45.500Z,76.68
2022-10-21T15:42:31.091Z,76.75
2022-10-21T15:45:19.424Z,76.69
2022-10-21T15:48:09.277Z,77.23
2022-10-21T15:50:59.988Z,77.33
2022-10-21T15:53:45.303Z,77.69
2022-10-21T15:56:30.746Z,77.65
2022-10-21T15:59:18.915Z,77.67
2022-10-21T16:04:52.997Z,77.84
2022-10-21T16:07:38.494Z,77.77
2022-10-21T16:10:30.511Z,78.34
2022-10-21T16:13:15.995Z,78.38
2022-10-21T16:16:01.903Z,78.19
2022-10-21T16:18:48.005Z,78.17
2022-10-21T16:21:33.554Z,78.04
2022-10-21T16:24:18.852Z,78.46
2022-10-21T16:27:11.646Z,78.47
2022-10-21T16:29:57.056Z,78.79
2022-10-21T16:32:42.463Z,78.95
2022-10-21T16:35:27.864Z,79.00
2022-10-21T16:38:13.328Z,78.87
2022-10-21T16:40:58.759Z,79.61
2022-10-21T16:43:44.455Z,79.79
2022-10-21T16:46:49.372Z,79.57
2022-10-21T16:49:34.769Z,79.43
2022-10-21T16:52:20.174Z,80.02
2022-10-21T16:55:06.994Z,80.44
2022-10-21T16:57:52.311Z,81.21
2022-10-21T17:00:37.783Z,81.77
2022-10-21T17:03:23.015Z,82.54
2022-10-21T17:06:08.896Z,83.53
2022-10-21T17:08:55.997Z,84.34
2022-10-21T17:11:42.458Z,85.18
2022-10-21T17:14:28.298Z,85.92
2022-10-21T17:17:21.422Z,86.97
2022-10-21T17:20:07.387Z,87.81
2022-10-21T17:22:52.743Z,89.32
2022-10-21T17:25:38.382Z,89.92
2022-10-21T17:28:24.232Z,90.92
2022-10-21T17:31:17.296Z,91.56
2022-10-21T17:34:06.357Z,92.11
2022-10-21T17:36:51.735Z,93.17
2022-10-21T17:39:36.918Z,93.67
2022-10-21T17:42:22.114Z,94.48
2022-10-21T17:45:09.205Z,95.43
2022-10-21T17:47:54.535Z,96.01
2022-10-21T17:50:40.099Z,97.06
2022-10-21T17:53:27.642Z,97.89
2022-10-21T17:56:12.991Z,98.66
2022-10-21T17:58:58.692Z,99.50
2022-10-21T18:01:44.337Z,99.86
2022-10-21T18:04:31.578Z,100.00
2022-10-21T18:07:17.896Z,100.00
2022-10-21T18:10:04.667Z,100.00
2022-10-21T18:12:50.056Z,100.00
2022-10-21T18:15:37.425Z,100.00
2022-10-21T18:18:23.186Z,100.00
2022-10-21T18:21:12.256Z,100.00
2022-10-21T18:23:58.023Z,100.00
2022-10-21T18:26:43.291Z,100.00
2022-10-21T18:29:28.736Z,100.00
2022-10-21T18:32:14.835Z,100.00
2022-10-21T18:35:00.414Z,100.00
2022-10-21T18:37:45.914Z,100.00
2022-10-21T18:40:31.238Z,100.00
2022-10-21T18:43:16.670Z,100.00
2022-10-21T18:46:03.410Z,100.00
2022-10-21T18:48:48.738Z,100.00
2022-10-21T18:51:34.006Z,100.00
2022-10-21T18:54:19.690Z,100.00
2022-10-21T18:57:07.560Z,100.00
2022-10-21T18:59:54.433Z,100.00
2022-10-21T19:02:40.218Z,100.00
2022-10-21T19:05:25.701Z,100.00
2022-10-21T19:08:10.895Z,100.00
2022-10-21T19:10:56.397Z,100.00
2022-10-21T19:13:41.594Z,100.00
2022-10-21T19:16:26.951Z,100.00
2022-10-21T19:19:13.057Z,100.00
2022-10-21T19:21:58.558Z,100.00
2022-10-21T19:24:43.747Z,100.00
2022-10-21T19:27:29.334Z,100.00
2022-10-21T19:30:14.591Z,100.00
2022-10-21T19:33:02.003Z,100.00
2022-10-21T19:35:47.322Z,100.00
2022-10-21T19:38:50.022Z,100.00
2022-10-21T19:41:35.069Z,100.00
2022-10-21T19:44:20.228Z,100.00
2022-10-21T19:47:05.858Z,100.00
2022-10-21T19:49:51.204Z,100.00
2022-10-21T19:52:36.446Z,100.00
2022-10-21T19:55:21.611Z,100.00
2022-10-21T19:58:06.799Z,100.00
2022-10-21T20:01:08.999Z,100.00
2022-10-21T20:03:55.301Z,100.00
2022-10-21T20:06:40.844Z,100.00
2022-10-21T20:09:26.321Z,100.00
2022-10-21T20:12:11.783Z,100.00
2022-10-21T20:14:57.340Z,100.00
2022-10-21T20:17:42.779Z,100.00
2022-10-21T20:20:27.937Z,100.00
2022-10-21T20:23:13.190Z,100.00
2022-10-21T20:25:59.134Z,100.00
2022-10-21T20:28:44.904Z,100.00
2022-10-21T20:31:30.994Z,100.00
2022-10-21T20:34:16.400Z,100.00
2022-10-21T20:37:01.564Z,100.00
2022-10-21T20:39:46.823Z,100.00
2022-10-21T20:42:32.978Z,100.00
2022-10-21T20:45:19.939Z,100.00
2022-10-21T20:48:05.638Z,100.00
2022-10-21T20:51:00.842Z,100.00
2022-10-21T20:53:51.155Z,100.00
2022-10-21T20:56:38.541Z,100.00
2022-10-21T20:59:23.791Z,100.00
2022-10-21T21:02:09.197Z,100.00
2022-10-21T21:04:54.358Z,100.00
2022-10-21T21:07:39.653Z,100.00
2022-10-21T21:10:25.286Z,100.00
2022-10-21T21:13:10.633Z,100.00
2022-10-21T21:16:08.162Z,100.00
2022-10-21T21:18:59.503Z,100.00
2022-10-21T21:21:44.819Z,100.00
2022-10-21T21:24:30.165Z,100.00
2022-10-21T21:27:15.820Z,100.00
2022-10-21T21:30:01.372Z,100.00
2022-10-21T21:32:46.575Z,100.00
2022-10-21T21:35:32.005Z,100.00
2022-10-21T21:38:17.454Z,100.00
2022-10-21T21:41:05.461Z,100.00
2022-10-21T21:43:53.442Z,100.00
2022-10-21T21:46:38.697Z,100.00
2022-10-21T21:49:24.279Z,100.00
2022-10-21T21:52:09.540Z,100.00
2022-10-21T21:54:56.883Z,100.00
2022-10-21T21:57:42.354Z,100.00
2022-10-21T22:00:27.846Z,100.00
2022-10-21T22:03:13.156Z,100.00
2022-10-21T22:05:58.533Z,100.00
2022-10-21T22:08:44.850Z,100.00
2022-10-21T22:11:32.308Z,100.00
2022-10-21T22:14:17.478Z,100.00
2022-10-21T22:17:02.994Z,100.00
2022-10-21T22:19:52.898Z,100.00
2022-10-21T22:22:39.291Z,100.00
2022-10-21T22:25:24.901Z,100.00
2022-10-21T22:28:10.563Z,100.00
2022-10-21T22:31:04.946Z,100.00
2022-10-21T22:33:51.686Z,100.00
2022-10-21T22:36:37.117Z,100.00
2022-10-21T22:39:22.392Z,100.00
2022-10-21T22:42:08.078Z,100.00
2022-10-21T22:44:53.473Z,100.00
2022-10-21T22:47:39.128Z,100.00
2022-10-21T22:50:24.245Z,100.00
2022-10-21T22:53:09.831Z,100.00
2022-10-21T22:55:55.234Z,100.00
2022-10-21T22:58:40.555Z,100.00
2022-10-21T23:01:30.247Z,100.00
2022-10-21T23:04:17.801Z,100.00
2022-10-21T23:07:02.834Z,100.00
2022-10-21T23:09:48.316Z,100.00
2022-10-21T23:12:33.397Z,100.00
2022-10-21T23:15:18.762Z,100.00
2022-10-21T23:18:04.433Z,100.00
2022-10-21T23:20:49.916Z,100.00
2022-10-21T23:23:36.112Z,100.00
2022-10-21T23:26:21.346Z,100.00
2022-10-21T23:29:06.767Z,100.00
2022-10-21T23:31:54.191Z,100.00
2022-10-21T23:34:41.797Z,100.00
2022-10-21T23:37:27.303Z,100.00
2022-10-21T23:40:13.181Z,100.00
2022-10-21T23:42:58.261Z,100.00
2022-10-21T23:45:43.498Z,100.00
2022-10-21T23:48:28.903Z,100.00
2022-10-21T23:51:14.147Z,100.00
2022-10-21T23:53:59.469Z,100.00
2022-10-21T23:56:45.445Z,100.00
2022-10-21T23:59:31.071Z,100.00
